createdAt,value
2018-05-31T00:00:15.249Z,102655.51
2018-05-31T00:01:52.379Z,102656.40
2018-05-31T00:03:28.725Z,102675.80
2018-05-31T00:05:05.076Z,102748.25
2018-05-31T00:06:42.658Z,102833.27
2018-05-31T00:08:19.692Z,102920.17
2018-05-31T00:09:55.935Z,102980.58
2018-05-31T00:11:32.330Z,102999.94
2018-05-31T00:13:09.596Z,103022.52
2018-05-31T00:14:47.040Z,103052.21
2018-05-31T00:16:24.456Z,103071.19
2018-05-31T00:18:00.734Z,103121.66
2018-05-31T00:22:54.338Z,103075.72
2018-05-31T00:24:31.013Z,103000.95
2018-05-31T00:26:07.321Z,102884.27
2018-05-31T00:27:43.741Z,102873.91
2018-05-31T00:29:21.789Z,102909.50
2018-05-31T00:30:58.221Z,102905.88
2018-05-31T00:32:34.479Z,102788.84
2018-05-31T00:34:10.692Z,102707.84
2018-05-31T00:35:47.427Z,102688.97
2018-05-31T00:37:24.440Z,102638.22
2018-05-31T00:39:00.726Z,102586.01
2018-05-31T00:40:37.047Z,102558.17
2018-05-31T00:42:14.203Z,102598.13
2018-05-31T00:43:55.924Z,102627.02
2018-05-31T00:45:32.713Z,102712.41
2018-05-31T00:47:08.951Z,102791.14
2018-05-31T00:48:46.194Z,102897.44
2018-05-31T00:50:22.470Z,102934.82
2018-05-31T00:51:58.742Z,102952.78
2018-05-31T00:53:34.974Z,102896.98
2018-05-31T00:55:12.621Z,102846.09
2018-05-31T00:56:50.185Z,102766.44
2018-05-31T00:58:26.403Z,102731.83
2018-05-31T01:00:03.980Z,102749.81
2018-05-31T01:01:40.688Z,102813.75
2018-05-31T01:03:16.907Z,102845.77
2018-05-31T01:04:53.197Z,102854.75
2018-05-31T01:06:30.605Z,102905.16
2018-05-31T01:08:06.889Z,102937.16
2018-05-31T01:09:43.380Z,102951.14
2018-05-31T01:11:19.651Z,102940.31
2018-05-31T01:12:56.246Z,102958.37
2018-05-31T01:14:32.493Z,102875.03
2018-05-31T01:16:08.846Z,102855.22
2018-05-31T01:17:45.101Z,102795.83
2018-05-31T01:19:22.106Z,102787.75
2018-05-31T01:20:59.194Z,102856.11
2018-05-31T01:22:35.476Z,102893.06
2018-05-31T01:24:11.816Z,102909.31
2018-05-31T01:25:48.579Z,102916.97
2018-05-31T01:27:24.909Z,102848.56
2018-05-31T01:29:01.860Z,102777.46
2018-05-31T01:30:38.616Z,102686.07
2018-05-31T01:32:16.328Z,102645.66
2018-05-31T01:33:53.486Z,102496.88
2018-05-31T01:35:30.129Z,102365.74
2018-05-31T01:37:06.521Z,102324.45
2018-05-31T01:38:43.189Z,102232.88
2018-05-31T01:40:19.765Z,102155.67
2018-05-31T01:41:56.738Z,102138.19
2018-05-31T01:43:33.154Z,102152.09
2018-05-31T01:45:10.269Z,102219.44
2018-05-31T01:46:47.684Z,102236.47
2018-05-31T01:48:24.003Z,102264.30
2018-05-31T01:50:00.377Z,102199.72
2018-05-31T01:54:00.219Z,101906.09
2018-05-31T01:55:40.061Z,101816.22
2018-05-31T01:57:17.639Z,101753.03
2018-05-31T01:58:53.984Z,101756.66
2018-05-31T02:00:30.622Z,101770.02
2018-05-31T02:02:06.922Z,101800.44
2018-05-31T02:03:43.954Z,101852.84
2018-05-31T02:05:20.381Z,101888.19
2018-05-31T02:06:57.341Z,101928.96
2018-05-31T02:08:33.766Z,102015.91
2018-05-31T02:10:10.629Z,102086.72
2018-05-31T02:11:48.066Z,102207.41
2018-05-31T02:13:25.338Z,102294.45
2018-05-31T02:15:02.413Z,102327.22
2018-05-31T02:16:40.334Z,102292.27
2018-05-31T02:18:16.591Z,102202.05
2018-05-31T02:19:52.855Z,102008.31
2018-05-31T02:21:29.199Z,101865.49
2018-05-31T02:23:05.776Z,101769.25
2018-05-31T02:24:42.922Z,101806.51
2018-05-31T02:26:19.511Z,101805.12
2018-05-31T02:27:56.423Z,101776.05
2018-05-31T02:29:33.155Z,101853.87
2018-05-31T02:31:09.642Z,101902.28
2018-05-31T02:32:47.216Z,102014.61
2018-05-31T02:34:23.901Z,102023.64
2018-05-31T02:36:00.853Z,102068.91
2018-05-31T02:37:37.350Z,102232.19
2018-05-31T02:39:14.767Z,102214.72
2018-05-31T02:40:51.690Z,101945.27
2018-05-31T02:42:29.531Z,101788.67
2018-05-31T02:44:05.994Z,101874.11
2018-05-31T02:45:43.613Z,101914.41
2018-05-31T02:47:20.322Z,101862.52
2018-05-31T02:48:57.946Z,101961.88
2018-05-31T02:50:34.361Z,102097.66
2018-05-31T02:52:14.347Z,102202.23
2018-05-31T02:53:52.587Z,102247.08
2018-05-31T02:55:30.802Z,102240.78
2018-05-31T02:57:09.634Z,102222.42
2018-05-31T02:58:49.748Z,102185.27
2018-05-31T03:00:28.116Z,102195.09
2018-05-31T03:02:05.689Z,102230.52
2018-05-31T03:03:42.253Z,102244.91
2018-05-31T03:05:18.657Z,102259.27
2018-05-31T03:06:55.050Z,102257.47
2018-05-31T03:08:31.857Z,102261.97
2018-05-31T03:10:08.201Z,102283.09
2018-05-31T03:11:44.609Z,102283.09
2018-05-31T03:13:20.928Z,102282.20
2018-05-31T03:14:57.818Z,102261.10
2018-05-31T03:16:34.321Z,102136.48
2018-05-31T03:18:10.545Z,101901.17
2018-05-31T03:19:47.626Z,101730.73
2018-05-31T03:21:24.381Z,101598.73
2018-05-31T03:23:00.711Z,101540.72
2018-05-31T03:24:36.941Z,101434.31
2018-05-31T03:26:13.233Z,101374.00
2018-05-31T03:27:49.988Z,101502.74
2018-05-31T03:29:26.262Z,101588.98
2018-05-31T03:31:02.975Z,101537.92
2018-05-31T03:32:40.389Z,101496.86
2018-05-31T03:34:17.467Z,101449.09
2018-05-31T03:35:54.086Z,101445.97
2018-05-31T03:37:31.135Z,101456.70
2018-05-31T03:39:08.220Z,101343.23
2018-05-31T03:40:45.998Z,101347.73
2018-05-31T03:42:22.746Z,101410.25
2018-05-31T03:44:00.776Z,101484.91
2018-05-31T03:45:38.427Z,101499.13
2018-05-31T03:47:16.954Z,101473.22
2018-05-31T03:48:53.729Z,101440.23
2018-05-31T03:50:31.425Z,101436.70
2018-05-31T03:52:09.127Z,101509.48
2018-05-31T03:53:45.958Z,101571.20
2018-05-31T03:55:23.869Z,101651.23
2018-05-31T03:57:00.090Z,101723.71
2018-05-31T03:58:36.406Z,101851.25
2018-05-31T04:00:13.076Z,102079.70
2018-05-31T04:01:53.699Z,102278.86
2018-05-31T04:03:30.733Z,102363.72
2018-05-31T04:05:07.197Z,102323.38
2018-05-31T04:06:43.865Z,102410.03
2018-05-31T04:08:21.370Z,102529.57
2018-05-31T04:09:59.434Z,102600.09
2018-05-31T04:11:36.797Z,102662.59
2018-05-31T04:13:16.623Z,102742.30
2018-05-31T04:14:54.915Z,102852.06
2018-05-31T04:16:31.658Z,102925.50
2018-05-31T04:18:11.858Z,102942.99
2018-05-31T04:19:51.248Z,102790.46
2018-05-31T04:21:27.978Z,102546.75
2018-05-31T04:23:06.943Z,102466.78
2018-05-31T04:24:43.781Z,102275.47
2018-05-31T04:26:21.550Z,102085.78
2018-05-31T04:27:58.665Z,102059.83
2018-05-31T04:29:35.550Z,102036.56
2018-05-31T04:31:12.005Z,102008.73
2018-05-31T04:32:49.927Z,102109.55
2018-05-31T04:34:26.487Z,102258.95
2018-05-31T04:36:03.776Z,102262.54
2018-05-31T04:37:41.985Z,102262.56
2018-05-31T04:39:19.300Z,102294.45
2018-05-31T04:40:57.194Z,102372.57
2018-05-31T04:42:33.511Z,102503.73
2018-05-31T04:44:11.331Z,102707.83
2018-05-31T04:45:49.417Z,102904.06
2018-05-31T04:47:27.191Z,102975.23
2018-05-31T04:49:05.189Z,103048.20
2018-05-31T04:50:41.525Z,103079.78
2018-05-31T04:52:18.847Z,103077.97
2018-05-31T04:53:55.085Z,102941.52
2018-05-31T04:55:31.569Z,103055.44
2018-05-31T04:57:08.701Z,103115.88
2018-05-31T04:58:46.098Z,102925.81
2018-05-31T05:00:22.434Z,102903.27
2018-05-31T05:02:01.752Z,102757.36
2018-05-31T05:03:38.665Z,102716.05
2018-05-31T05:05:16.853Z,102659.73
2018-05-31T05:06:53.263Z,102622.50
2018-05-31T05:08:31.586Z,102620.70
2018-05-31T05:10:07.996Z,102653.94
2018-05-31T05:11:44.644Z,102744.34
2018-05-31T05:13:21.593Z,102830.35
2018-05-31T05:14:58.835Z,103103.30
2018-05-31T05:16:35.529Z,102888.86
2018-05-31T05:18:12.652Z,102822.73
2018-05-31T05:19:48.838Z,102823.65
2018-05-31T05:21:25.817Z,102803.80
2018-05-31T05:23:02.381Z,102816.44
2018-05-31T05:24:39.813Z,102852.93
2018-05-31T05:26:16.187Z,102926.72
2018-05-31T05:27:53.625Z,103072.26
2018-05-31T05:29:32.362Z,103138.98
2018-05-31T05:31:11.309Z,103298.23
2018-05-31T05:32:48.506Z,103581.84
2018-05-31T05:34:24.927Z,103802.98
2018-05-31T05:36:02.138Z,103813.39
2018-05-31T05:37:38.914Z,103789.83
2018-05-31T05:39:16.089Z,103742.38
2018-05-31T05:40:52.754Z,103705.79
2018-05-31T05:42:29.165Z,103631.16
2018-05-31T05:44:07.277Z,103496.53
2018-05-31T05:45:44.585Z,103572.00
2018-05-31T05:47:22.592Z,103550.72
2018-05-31T05:48:58.863Z,103661.03
2018-05-31T05:50:35.333Z,103707.14
2018-05-31T05:52:11.567Z,103623.45
2018-05-31T05:53:49.894Z,103684.57
2018-05-31T05:55:27.145Z,103736.55
2018-05-31T05:57:03.885Z,103662.88
2018-05-31T05:58:42.427Z,103838.81
2018-05-31T06:00:20.223Z,104140.48
2018-05-31T06:01:57.433Z,104325.95
2018-05-31T06:03:33.993Z,104335.47
2018-05-31T06:05:10.261Z,104364.56
2018-05-31T06:06:46.692Z,104488.47
2018-05-31T06:08:23.375Z,104537.13
2018-05-31T06:10:00.061Z,104547.14
2018-05-31T06:11:36.337Z,104524.84
2018-05-31T06:13:14.271Z,104342.77
2018-05-31T06:14:50.669Z,104228.91
2018-05-31T06:16:28.059Z,104270.16
2018-05-31T06:18:04.746Z,104399.06
2018-05-31T06:19:41.396Z,104385.41
2018-05-31T06:21:19.329Z,104366.81
2018-05-31T06:22:56.130Z,104387.22
2018-05-31T06:24:35.041Z,104334.58
2018-05-31T06:26:11.907Z,104366.30
2018-05-31T06:27:50.652Z,104347.23
2018-05-31T06:29:28.369Z,104363.61
2018-05-31T06:31:06.624Z,104291.91
2018-05-31T06:32:43.168Z,104140.43
2018-05-31T06:34:20.879Z,104056.58
2018-05-31T06:35:58.829Z,104018.52
2018-05-31T06:37:35.408Z,103938.76
2018-05-31T06:39:15.867Z,103935.14
2018-05-31T06:40:54.097Z,104026.20
2018-05-31T06:42:31.392Z,104003.11
2018-05-31T06:44:08.062Z,104072.86
2018-05-31T06:45:44.585Z,104200.69
2018-05-31T06:47:21.109Z,104173.45
2018-05-31T06:48:58.551Z,104275.03
2018-05-31T06:50:35.752Z,104284.56
2018-05-31T06:52:12.181Z,104177.95
2018-05-31T06:53:49.713Z,104073.73
2018-05-31T06:55:26.358Z,104034.73
2018-05-31T06:57:03.378Z,103992.56
2018-05-31T06:58:39.942Z,103965.36
2018-05-31T07:00:21.180Z,103993.89
2018-05-31T07:01:58.111Z,104044.20
2018-05-31T07:03:35.173Z,103962.19
2018-05-31T07:05:13.215Z,103908.31
2018-05-31T07:06:49.830Z,103855.33
2018-05-31T07:08:27.429Z,103837.22
2018-05-31T07:10:04.946Z,103921.44
2018-05-31T07:11:42.801Z,103999.30
2018-05-31T07:13:19.877Z,104003.31
2018-05-31T07:14:57.441Z,103955.77
2018-05-31T07:16:34.882Z,104033.69
2018-05-31T07:18:12.533Z,103993.38
2018-05-31T07:19:49.356Z,103943.97
2018-05-31T07:21:26.565Z,103951.23
2018-05-31T07:23:05.885Z,103845.73
2018-05-31T07:24:42.108Z,103715.42
2018-05-31T07:26:19.762Z,103676.94
2018-05-31T07:27:56.473Z,103705.90
2018-05-31T07:29:34.467Z,103650.25
2018-05-31T07:31:11.613Z,103713.98
2018-05-31T07:32:48.465Z,103690.45
2018-05-31T07:34:27.133Z,103637.09
2018-05-31T07:36:04.644Z,103629.45
2018-05-31T07:37:42.977Z,103712.11
2018-05-31T07:39:20.483Z,103820.70
2018-05-31T07:40:58.105Z,103928.88
2018-05-31T07:42:35.290Z,103985.47
2018-05-31T07:44:12.481Z,103969.67
2018-05-31T07:45:49.160Z,103892.22
2018-05-31T07:47:26.001Z,103779.06
2018-05-31T07:49:02.455Z,103640.64
2018-05-31T07:50:38.978Z,103498.73
2018-05-31T07:52:16.021Z,103444.94
2018-05-31T07:53:52.714Z,103472.05
2018-05-31T07:55:29.249Z,103578.70
2018-05-31T07:57:06.739Z,103651.44
2018-05-31T07:58:43.047Z,103614.34
2018-05-31T08:00:21.956Z,103605.33
2018-05-31T08:01:59.125Z,103636.47
2018-05-31T08:03:36.285Z,103685.73
2018-05-31T08:05:13.285Z,103711.97
2018-05-31T08:06:50.025Z,103817.34
2018-05-31T08:08:27.845Z,103820.08
2018-05-31T08:10:04.339Z,103803.78
2018-05-31T08:11:40.700Z,103824.16
2018-05-31T08:13:19.477Z,103851.77
2018-05-31T08:14:56.841Z,103882.56
2018-05-31T08:16:34.970Z,103930.09
2018-05-31T08:18:11.223Z,103979.90
2018-05-31T08:19:48.679Z,104035.63
2018-05-31T08:21:25.690Z,104061.44
2018-05-31T08:23:03.980Z,104139.86
2018-05-31T08:24:40.818Z,104150.73
2018-05-31T08:26:18.502Z,104107.66
2018-05-31T08:27:57.300Z,104150.69
2018-05-31T08:29:34.574Z,104269.98
2018-05-31T08:31:11.144Z,104369.78
2018-05-31T08:32:48.045Z,104421.54
2018-05-31T08:34:24.749Z,104460.14
2018-05-31T08:36:02.128Z,104380.70
2018-05-31T08:37:39.914Z,104288.08
2018-05-31T08:39:16.581Z,104285.34
2018-05-31T08:40:53.155Z,104337.52
2018-05-31T08:42:30.435Z,104379.30
2018-05-31T08:44:08.569Z,104386.55
2018-05-31T08:45:46.683Z,104333.84
2018-05-31T08:47:26.953Z,104319.80
2018-05-31T08:49:04.621Z,104328.83
2018-05-31T08:50:41.138Z,104391.07
2018-05-31T08:52:20.108Z,104452.34
2018-05-31T08:53:59.687Z,104477.77
2018-05-31T08:55:36.372Z,104385.13
2018-05-31T08:57:12.751Z,104289.75
2018-05-31T08:58:50.081Z,104229.41
2018-05-31T09:00:29.425Z,104285.66
2018-05-31T09:02:06.182Z,104396.91
2018-05-31T09:03:42.818Z,104527.70
2018-05-31T09:05:20.133Z,104538.57
2018-05-31T09:06:58.175Z,104506.77
2018-05-31T09:08:36.010Z,104511.34
2018-05-31T09:10:12.550Z,104386.90
2018-05-31T09:11:50.789Z,104331.91
2018-05-31T09:13:29.660Z,104238.91
2018-05-31T09:15:08.241Z,104102.86
2018-05-31T09:16:48.256Z,103984.10
2018-05-31T09:18:25.647Z,103965.09
2018-05-31T09:20:04.138Z,103976.83
2018-05-31T09:21:41.774Z,103970.91
2018-05-31T09:23:22.065Z,103961.41
2018-05-31T09:25:00.459Z,103976.81
2018-05-31T09:26:39.370Z,104049.73
2018-05-31T09:28:17.771Z,104181.19
2018-05-31T09:29:54.837Z,104229.25
2018-05-31T09:31:34.471Z,104134.95
2018-05-31T09:33:11.777Z,104086.88
2018-05-31T09:34:48.114Z,104080.06
2018-05-31T09:36:25.595Z,104009.77
2018-05-31T09:38:02.184Z,103950.94
2018-05-31T09:39:38.480Z,103959.03
2018-05-31T09:41:14.826Z,104027.94
2018-05-31T09:42:52.281Z,104054.69
2018-05-31T09:44:29.212Z,104014.76
2018-05-31T09:46:09.006Z,104041.95
2018-05-31T09:47:46.647Z,104118.53
2018-05-31T09:49:22.962Z,104185.20
2018-05-31T09:51:00.013Z,104244.55
2018-05-31T09:52:36.566Z,104231.41
2018-05-31T09:54:13.540Z,104110.34
2018-05-31T09:55:50.318Z,103948.98
2018-05-31T09:57:28.073Z,103952.16
2018-05-31T09:59:04.519Z,103992.91
2018-05-31T10:00:42.432Z,104064.48
2018-05-31T10:02:19.378Z,104054.09
2018-05-31T10:03:55.761Z,104141.59
2018-05-31T10:05:32.647Z,104179.20
2018-05-31T10:07:09.050Z,104210.93
2018-05-31T10:08:46.184Z,104205.47
2018-05-31T10:10:24.121Z,104247.67
2018-05-31T10:12:01.005Z,104251.25
2018-05-31T10:13:38.529Z,104207.74
2018-05-31T10:15:16.593Z,104173.24
2018-05-31T10:16:54.473Z,104194.07
2018-05-31T10:18:32.094Z,104173.67
2018-05-31T10:20:09.566Z,104137.84
2018-05-31T10:21:47.956Z,104146.94
2018-05-31T10:23:25.719Z,104174.59
2018-05-31T10:25:02.849Z,104172.30
2018-05-31T10:26:39.941Z,104181.78
2018-05-31T10:28:17.005Z,104189.50
2018-05-31T10:29:54.673Z,104110.63
2018-05-31T10:31:34.697Z,104068.41
2018-05-31T10:33:12.045Z,104005.91
2018-05-31T10:34:49.598Z,103994.56
2018-05-31T10:36:26.294Z,103933.36
2018-05-31T10:38:03.287Z,103836.95
2018-05-31T10:39:40.449Z,103785.80
2018-05-31T10:41:19.580Z,103829.72
2018-05-31T10:42:56.388Z,103873.63
2018-05-31T10:44:33.183Z,103912.97
2018-05-31T10:46:10.689Z,103840.56
2018-05-31T10:47:47.752Z,103785.31
2018-05-31T10:49:24.289Z,103882.19
2018-05-31T10:51:02.140Z,103984.52
2018-05-31T10:52:41.480Z,104026.23
2018-05-31T10:54:18.212Z,103999.44
2018-05-31T10:55:56.494Z,103977.75
2018-05-31T10:57:33.395Z,104060.16
2018-05-31T10:59:09.650Z,104141.80
2018-05-31T11:00:47.131Z,104163.13
2018-05-31T11:02:23.856Z,104006.70
2018-05-31T11:04:00.959Z,103954.13
2018-05-31T11:05:38.278Z,103955.00
2018-05-31T11:07:14.598Z,104030.23
2018-05-31T11:08:52.604Z,104003.49
2018-05-31T11:10:29.372Z,104054.67
2018-05-31T11:12:06.736Z,104138.57
2018-05-31T11:13:43.866Z,104200.69
2018-05-31T11:15:21.631Z,104304.64
2018-05-31T11:16:59.254Z,104371.29
2018-05-31T11:18:36.423Z,104251.06
2018-05-31T11:20:13.307Z,104265.58
2018-05-31T11:21:51.468Z,104171.68
2018-05-31T11:23:27.997Z,104148.08
2018-05-31T11:25:04.576Z,104174.81
2018-05-31T11:26:41.971Z,104232.86
2018-05-31T11:28:19.273Z,104273.27
2018-05-31T11:29:55.913Z,104246.50
2018-05-31T11:31:32.353Z,104256.45
2018-05-31T11:33:10.059Z,104121.70
2018-05-31T11:34:47.127Z,104103.59
2018-05-31T11:36:23.458Z,104174.30
2018-05-31T11:37:59.685Z,104230.13
2018-05-31T11:39:36.678Z,104192.91
2018-05-31T11:41:13.294Z,104276.90
2018-05-31T11:42:50.786Z,104362.63
2018-05-31T11:44:27.166Z,104430.27
2018-05-31T11:46:03.848Z,104316.78
2018-05-31T11:47:40.588Z,104224.64
2018-05-31T11:49:16.892Z,104105.38
2018-05-31T11:50:53.189Z,103877.94
2018-05-31T11:52:29.609Z,103842.66
2018-05-31T11:54:06.353Z,103780.15
2018-05-31T11:55:43.162Z,103858.45
2018-05-31T11:57:19.489Z,103914.12
2018-05-31T11:58:55.805Z,103953.98
2018-05-31T12:00:33.127Z,103977.53
2018-05-31T12:02:09.526Z,103953.04
2018-05-31T12:03:45.798Z,103992.02
2018-05-31T12:05:22.044Z,103915.84
2018-05-31T12:06:59.497Z,103912.67
2018-05-31T12:08:35.756Z,103845.72
2018-05-31T12:10:12.886Z,103858.84
2018-05-31T12:11:49.090Z,103868.33
2018-05-31T12:13:25.677Z,103866.92
2018-05-31T12:15:02.655Z,103835.25
2018-05-31T12:16:39.912Z,103945.75
2018-05-31T12:18:16.210Z,104065.39
2018-05-31T12:19:53.174Z,104195.96
2018-05-31T12:21:30.213Z,104283.11
2018-05-31T12:23:06.522Z,104227.70
2018-05-31T12:24:43.525Z,104352.03
2018-05-31T12:26:20.258Z,104485.11
2018-05-31T12:27:56.425Z,104526.40
2018-05-31T12:29:35.168Z,104520.48
2018-05-31T12:31:11.766Z,104571.82
2018-05-31T12:32:51.209Z,104693.24
2018-05-31T12:34:28.134Z,104730.12
2018-05-31T12:36:04.549Z,104736.51
2018-05-31T12:37:42.326Z,104672.76
2018-05-31T12:39:18.895Z,104655.91
2018-05-31T12:40:55.757Z,104657.30
2018-05-31T12:42:32.076Z,104551.38
2018-05-31T12:44:09.102Z,104566.40
2018-05-31T12:45:45.854Z,104572.71
2018-05-31T12:47:22.186Z,104513.63
2018-05-31T12:48:59.247Z,104471.86
2018-05-31T12:50:35.780Z,104438.19
2018-05-31T12:52:12.409Z,104450.47
2018-05-31T12:53:48.691Z,104517.70
2018-05-31T12:55:24.925Z,104564.50
2018-05-31T12:57:01.211Z,104620.02
2018-05-31T12:58:37.883Z,104719.58
2018-05-31T13:00:15.858Z,104778.22
2018-05-31T13:01:52.593Z,104706.78
2018-05-31T13:03:28.913Z,104618.12
2018-05-31T13:05:05.592Z,104558.53
2018-05-31T13:06:41.907Z,104665.83
2018-05-31T13:08:19.142Z,104775.48
2018-05-31T13:09:57.213Z,104757.72
2018-05-31T13:11:33.891Z,104594.00
2018-05-31T13:13:10.157Z,104459.50
2018-05-31T13:14:46.613Z,104388.15
2018-05-31T13:16:23.157Z,104398.63
2018-05-31T13:17:59.842Z,104434.46
2018-05-31T13:19:36.943Z,104466.27
2018-05-31T13:21:13.233Z,104443.13
2018-05-31T13:22:50.395Z,104502.59
2018-05-31T13:24:28.619Z,104518.01
2018-05-31T13:26:05.251Z,104509.38
2018-05-31T13:27:41.650Z,104473.06
2018-05-31T13:29:17.985Z,104299.55
2018-05-31T13:30:54.607Z,104129.86
2018-05-31T13:32:30.896Z,104245.57
2018-05-31T13:34:07.303Z,104224.72
2018-05-31T13:35:43.532Z,104291.38
2018-05-31T13:37:20.145Z,104349.90
2018-05-31T13:38:57.287Z,104454.36
2018-05-31T13:40:33.584Z,104514.31
2018-05-31T13:42:09.871Z,104491.63
2018-05-31T13:43:47.332Z,104357.17
2018-05-31T13:45:25.493Z,104349.90
2018-05-31T13:47:01.788Z,104387.98
2018-05-31T13:48:38.077Z,104460.25
2018-05-31T13:50:15.616Z,104503.83
2018-05-31T13:51:51.857Z,104541.95
2018-05-31T13:53:28.151Z,104447.52
2018-05-31T13:55:04.547Z,104334.42
2018-05-31T13:56:42.392Z,104290.37
2018-05-31T13:58:18.711Z,104319.82
2018-05-31T13:59:55.813Z,104320.79
2018-05-31T14:01:32.346Z,104378.91
2018-05-31T14:03:09.111Z,104391.57
2018-05-31T14:06:14.495Z,104342.11
2018-05-31T14:07:51.050Z,104318.97
2018-05-31T14:09:27.602Z,104507.83
2018-05-31T14:11:06.279Z,104581.02
2018-05-31T14:12:43.437Z,104726.52
2018-05-31T14:14:19.764Z,104681.97
2018-05-31T14:15:56.763Z,104602.37
2018-05-31T14:17:33.445Z,104757.47
2018-05-31T14:19:10.260Z,104935.03
2018-05-31T14:20:46.577Z,104927.71
2018-05-31T14:22:23.711Z,104953.70
2018-05-31T14:24:01.227Z,105129.48
2018-05-31T14:25:37.509Z,105180.14
2018-05-31T14:27:13.838Z,105136.77
2018-05-31T14:28:50.520Z,105206.61
2018-05-31T14:30:28.233Z,105333.83
2018-05-31T14:32:05.035Z,105285.47
2018-05-31T14:33:42.164Z,105017.88
2018-05-31T14:35:18.845Z,104686.95
2018-05-31T14:36:55.386Z,104805.73
2018-05-31T14:38:31.614Z,105030.15
2018-05-31T14:40:08.893Z,105216.09
2018-05-31T14:41:45.626Z,105245.29
2018-05-31T14:43:21.852Z,105232.97
2018-05-31T14:44:58.843Z,105240.70
2018-05-31T14:46:36.630Z,105193.30
2018-05-31T14:48:13.206Z,104928.52
2018-05-31T14:49:50.253Z,104893.91
2018-05-31T14:51:26.589Z,105031.02
2018-05-31T14:53:03.846Z,105161.36
2018-05-31T14:54:40.491Z,105206.93
2018-05-31T14:56:17.241Z,105238.84
2018-05-31T14:57:54.338Z,105169.05
2018-05-31T14:59:30.679Z,105101.53
2018-05-31T15:01:08.135Z,105078.28
2018-05-31T15:02:44.736Z,104941.66
2018-05-31T15:04:21.718Z,104951.66
2018-05-31T15:05:59.602Z,104831.88
2018-05-31T15:07:36.125Z,104793.16
2018-05-31T15:09:12.454Z,104855.52
2018-05-31T15:10:48.773Z,104890.17
2018-05-31T15:12:25.115Z,104886.96
2018-05-31T15:14:03.173Z,104684.44
2018-05-31T15:15:39.722Z,104634.38
2018-05-31T15:17:16.015Z,104623.06
2018-05-31T15:18:52.334Z,104679.86
2018-05-31T15:20:29.359Z,104727.13
2018-05-31T15:22:05.836Z,104855.04
2018-05-31T15:23:42.128Z,104935.16
2018-05-31T15:25:19.241Z,104936.92
2018-05-31T15:26:55.754Z,104888.29
2018-05-31T15:28:32.062Z,104827.23
2018-05-31T15:30:08.418Z,104821.79
2018-05-31T15:31:45.035Z,104849.06
2018-05-31T15:33:21.680Z,105094.09
2018-05-31T15:34:58.653Z,105217.64
2018-05-31T15:36:35.252Z,105187.09
2018-05-31T15:38:11.750Z,105146.94
2018-05-31T15:39:49.109Z,105177.95
2018-05-31T15:41:26.197Z,105161.54
2018-05-31T15:43:02.491Z,105172.47
2018-05-31T15:44:38.730Z,105206.20
2018-05-31T15:46:15.388Z,105208.45
2018-05-31T15:47:51.814Z,105231.25
2018-05-31T15:49:28.045Z,105165.56
2018-05-31T15:51:04.365Z,105099.48
2018-05-31T15:52:40.952Z,105003.29
2018-05-31T15:54:17.985Z,104866.23
2018-05-31T15:55:54.334Z,104813.84
2018-05-31T15:57:30.552Z,104741.90
2018-05-31T15:59:07.208Z,104702.37
2018-05-31T16:00:43.701Z,104639.55
2018-05-31T16:02:21.034Z,104558.61
2018-05-31T16:03:57.838Z,104540.46
2018-05-31T16:05:34.733Z,104580.00
2018-05-31T16:08:45.438Z,104646.77
2018-05-31T16:10:22.823Z,104626.77
2018-05-31T16:11:59.715Z,104568.09
2018-05-31T16:13:36.168Z,104509.90
2018-05-31T16:15:14.381Z,104534.87
2018-05-31T16:16:50.778Z,104556.25
2018-05-31T16:18:27.534Z,104535.30
2018-05-31T16:20:04.075Z,104508.96
2018-05-31T16:21:40.554Z,104408.12
2018-05-31T16:23:18.017Z,104303.27
2018-05-31T16:24:54.989Z,104290.52
2018-05-31T16:26:31.469Z,104265.06
2018-05-31T16:28:08.556Z,104199.23
2018-05-31T16:29:44.962Z,104187.47
2018-05-31T16:31:29.947Z,104207.89
2018-05-31T16:33:07.654Z,104285.47
2018-05-31T16:34:44.037Z,104307.24
2018-05-31T16:36:20.401Z,104358.97
2018-05-31T16:37:58.870Z,104407.08
2018-05-31T16:39:35.242Z,104449.33
2018-05-31T16:41:12.696Z,104431.12
2018-05-31T16:42:50.662Z,104460.20
2018-05-31T16:44:26.961Z,104462.50
2018-05-31T16:46:05.431Z,104467.94
2018-05-31T16:49:20.641Z,104517.47
2018-05-31T16:50:59.014Z,104543.38
2018-05-31T16:52:35.607Z,104546.56
2018-05-31T16:54:12.902Z,104505.61
2018-05-31T16:55:51.426Z,104379.34
2018-05-31T16:57:27.774Z,104166.00
2018-05-31T16:59:04.514Z,104157.83
2018-05-31T17:00:42.090Z,104126.53
2018-05-31T17:02:18.643Z,104146.06
2018-05-31T17:03:55.046Z,104096.14
2018-05-31T17:05:32.889Z,104112.91
2018-05-31T17:07:09.496Z,104141.50
2018-05-31T17:08:46.799Z,104173.26
2018-05-31T17:10:24.889Z,104206.36
2018-05-31T17:12:02.553Z,104232.64
2018-05-31T17:13:39.249Z,104324.82
2018-05-31T17:15:18.519Z,104390.60
2018-05-31T17:16:57.576Z,104301.66
2018-05-31T17:18:34.332Z,104343.38
2018-05-31T17:20:11.587Z,104362.00
2018-05-31T17:21:48.684Z,104383.77
2018-05-31T17:23:26.907Z,104442.83
2018-05-31T17:25:04.109Z,104483.71
2018-05-31T17:26:40.512Z,104466.89
2018-05-31T17:28:16.916Z,104467.81
2018-05-31T17:29:53.419Z,104450.53
2018-05-31T17:31:30.928Z,104414.19
2018-05-31T17:33:07.416Z,104346.48
2018-05-31T17:34:44.205Z,104347.02
2018-05-31T17:36:20.660Z,104340.19
2018-05-31T17:37:59.293Z,104337.92
2018-05-31T17:39:35.662Z,104227.56
2018-05-31T17:41:12.778Z,104233.02
2018-05-31T17:42:49.978Z,104204.45
2018-05-31T17:44:27.901Z,104197.62
2018-05-31T17:46:06.775Z,104229.39
2018-05-31T17:47:43.928Z,104120.03
2018-05-31T17:49:20.786Z,104109.64
2018-05-31T17:50:58.652Z,104084.69
2018-05-31T17:52:38.652Z,104061.11
2018-05-31T17:54:18.372Z,104067.89
2018-05-31T17:55:57.724Z,104060.19
2018-05-31T17:57:36.319Z,104067.91
2018-05-31T17:59:13.519Z,104103.69
2018-05-31T18:00:51.118Z,104220.28
2018-05-31T18:02:30.124Z,104305.61
2018-05-31T18:04:09.818Z,104257.98
2018-05-31T18:05:47.968Z,104224.38
2018-05-31T18:07:27.632Z,104208.45
2018-05-31T18:09:05.324Z,104157.64
2018-05-31T18:10:42.052Z,104157.64
2018-05-31T18:12:19.974Z,104159.02
2018-05-31T18:13:56.782Z,104157.63
2018-05-31T18:15:34.954Z,104129.52
2018-05-31T18:17:13.712Z,104092.78
2018-05-31T18:18:53.605Z,104010.33
2018-05-31T18:20:33.701Z,104021.16
2018-05-31T18:22:12.320Z,104061.05
2018-05-31T18:23:49.919Z,104004.85
2018-05-31T18:25:26.454Z,103921.93
2018-05-31T18:27:06.672Z,103833.58
2018-05-31T18:28:43.446Z,103739.03
2018-05-31T18:30:20.322Z,103711.85
2018-05-31T18:31:57.056Z,103705.48
2018-05-31T18:33:35.803Z,103732.68
2018-05-31T18:35:14.371Z,103695.08
2018-05-31T18:36:53.630Z,103772.94
2018-05-31T18:38:30.109Z,103768.86